sensor_id;sensor_type;location;lat;lon;timestamp;temperature;humidity
71084;DHT22;58741;52.672;13.548;2024-03-02T00:00:13;6.40;99.90
71084;DHT22;58741;52.672;13.548;2024-03-02T00:02:43;6.50;99.90
71084;DHT22;58741;52.672;13.548;2024-03-02T00:05:16;6.40;99.90
71084;DHT22;58741;52.672;13.548;2024-03-02T00:07:45;6.50;99.90
71084;DHT22;58741;52.672;13.548;2024-03-02T00:10:16;6.50;99.90
71084;DHT22;58741;52.672;13.548;2024-03-02T00:12:47;6.50;99.90
71084;DHT22;58741;52.672;13.548;2024-03-02T00:15:47;6.50;99.90
71084;DHT22;58741;52.672;13.548;2024-03-02T00:18:25;6.50;99.90
71084;DHT22;58741;52.672;13.548;2024-03-02T00:20:54;6.50;99.90
71084;DHT22;58741;52.672;13.548;2024-03-02T00:23:23;6.50;99.90
71084;DHT22;58741;52.672;13.548;2024-03-02T00:25:51;6.50;99.90
71084;DHT22;58741;52.672;13.548;2024-03-02T00:28:24;6.50;99.90
71084;DHT22;58741;52.672;13.548;2024-03-02T00:30:59;6.50;99.90
71084;DHT22;58741;52.672;13.548;2024-03-02T00:33:33;6.50;99.90
71084;DHT22;58741;52.672;13.548;2024-03-02T00:36:03;6.50;99.90
71084;DHT22;58741;52.672;13.548;2024-03-02T00:38:31;6.50;99.90
71084;DHT22;58741;52.672;13.548;2024-03-02T00:41:00;6.50;99.90
71084;DHT22;58741;52.672;13.548;2024-03-02T00:46:13;6.50;99.90
71084;DHT22;58741;52.672;13.548;2024-03-02T00:48:57;6.50;99.90
71084;DHT22;58741;52.672;13.548;2024-03-02T00:51:25;6.50;99.90
71084;DHT22;58741;52.672;13.548;2024-03-02T00:53:53;6.50;99.90
71084;DHT22;58741;52.672;13.548;2024-03-02T00:56:24;6.50;99.90
71084;DHT22;58741;52.672;13.548;2024-03-02T00:58:52;6.50;99.90
71084;DHT22;58741;52.672;13.548;2024-03-02T01:01:19;6.50;99.90
71084;DHT22;58741;52.672;13.548;2024-03-02T01:03:47;6.50;99.90
71084;DHT22;58741;52.672;13.548;2024-03-02T01:06:14;6.50;99.90
71084;DHT22;58741;52.672;13.548;2024-03-02T01:08:42;6.50;99.90
71084;DHT22;58741;52.672;13.548;2024-03-02T01:11:08;6.50;99.90
71084;DHT22;58741;52.672;13.548;2024-03-02T01:13:36;6.50;99.90
71084;DHT22;58741;52.672;13.548;2024-03-02T01:16:03;6.50;99.90
71084;DHT22;58741;52.672;13.548;2024-03-02T01:18:30;6.50;99.90
71084;DHT22;58741;52.672;13.548;2024-03-02T01:20:57;6.50;99.90
71084;DHT22;58741;52.672;13.548;2024-03-02T01:23:25;6.60;99.90
71084;DHT22;58741;52.672;13.548;2024-03-02T01:25:52;6.60;99.90
71084;DHT22;58741;52.672;13.548;2024-03-02T01:28:19;6.60;99.90
71084;DHT22;58741;52.672;13.548;2024-03-02T01:30:48;6.60;99.90
71084;DHT22;58741;52.672;13.548;2024-03-02T01:33:17;6.60;99.90
71084;DHT22;58741;52.672;13.548;2024-03-02T01:35:44;6.60;99.90
71084;DHT22;58741;52.672;13.548;2024-03-02T01:38:11;6.60;99.90
71084;DHT22;58741;52.672;13.548;2024-03-02T01:40:38;6.70;99.90
71084;DHT22;58741;52.672;13.548;2024-03-02T01:43:06;6.70;99.90
71084;DHT22;58741;52.672;13.548;2024-03-02T01:45:33;6.70;99.90
71084;DHT22;58741;52.672;13.548;2024-03-02T01:48:00;6.70;99.90
71084;DHT22;58741;52.672;13.548;2024-03-02T01:50:29;6.70;99.90
71084;DHT22;58741;52.672;13.548;2024-03-02T01:52:57;6.70;99.90
71084;DHT22;58741;52.672;13.548;2024-03-02T01:55:24;6.80;99.90
71084;DHT22;58741;52.672;13.548;2024-03-02T01:57:51;6.70;99.90
71084;DHT22;58741;52.672;13.548;2024-03-02T02:00:20;6.70;99.90
71084;DHT22;58741;52.672;13.548;2024-03-02T02:02:48;6.70;99.90
71084;DHT22;58741;52.672;13.548;2024-03-02T02:05:15;6.80;99.90
71084;DHT22;58741;52.672;13.548;2024-03-02T02:07:42;6.80;99.90
71084;DHT22;58741;52.672;13.548;2024-03-02T02:10:10;6.80;99.90
71084;DHT22;58741;52.672;13.548;2024-03-02T02:12:37;6.80;99.90
71084;DHT22;58741;52.672;13.548;2024-03-02T02:15:28;6.80;99.90
71084;DHT22;58741;52.672;13.548;2024-03-02T02:17:56;6.80;99.90
71084;DHT22;58741;52.672;13.548;2024-03-02T02:20:23;6.80;99.90
71084;DHT22;58741;52.672;13.548;2024-03-02T02:23:01;6.80;99.90
71084;DHT22;58741;52.672;13.548;2024-03-02T02:25:29;6.80;99.90
71084;DHT22;58741;52.672;13.548;2024-03-02T02:27:57;6.80;99.90
71084;DHT22;58741;52.672;13.548;2024-03-02T02:30:27;6.80;99.90
71084;DHT22;58741;52.672;13.548;2024-03-02T02:32:54;6.80;99.90
71084;DHT22;58741;52.672;13.548;2024-03-02T02:35:21;6.80;99.90
71084;DHT22;58741;52.672;13.548;2024-03-02T02:37:49;6.80;99.90
71084;DHT22;58741;52.672;13.548;2024-03-02T02:40:17;6.90;99.90
71084;DHT22;58741;52.672;13.548;2024-03-02T02:42:45;6.90;99.90
71084;DHT22;58741;52.672;13.548;2024-03-02T02:45:12;6.90;99.90
71084;DHT22;58741;52.672;13.548;2024-03-02T02:47:41;6.90;99.90
71084;DHT22;58741;52.672;13.548;2024-03-02T02:50:09;6.90;99.90
71084;DHT22;58741;52.672;13.548;2024-03-02T02:52:38;6.90;99.90
71084;DHT22;58741;52.672;13.548;2024-03-02T02:55:11;6.90;99.90
71084;DHT22;58741;52.672;13.548;2024-03-02T02:57:39;6.90;99.90
71084;DHT22;58741;52.672;13.548;2024-03-02T03:00:13;7.00;99.90
71084;DHT22;58741;52.672;13.548;2024-03-02T03:02:43;7.00;99.90
71084;DHT22;58741;52.672;13.548;2024-03-02T03:05:11;7.00;99.90
71084;DHT22;58741;52.672;13.548;2024-03-02T03:07:41;7.00;99.90
71084;DHT22;58741;52.672;13.548;2024-03-02T03:10:08;7.10;99.90
71084;DHT22;58741;52.672;13.548;2024-03-02T03:12:36;7.20;99.90
71084;DHT22;58741;52.672;13.548;2024-03-02T03:15:03;7.20;99.90
71084;DHT22;58741;52.672;13.548;2024-03-02T03:17:35;7.30;99.90
71084;DHT22;58741;52.672;13.548;2024-03-02T03:20:02;7.40;99.90
71084;DHT22;58741;52.672;13.548;2024-03-02T03:22:30;7.40;99.90
71084;DHT22;58741;52.672;13.548;2024-03-02T03:24:58;7.50;99.90
71084;DHT22;58741;52.672;13.548;2024-03-02T03:27:25;7.50;99.90
71084;DHT22;58741;52.672;13.548;2024-03-02T03:29:53;7.60;99.90
71084;DHT22;58741;52.672;13.548;2024-03-02T03:32:21;7.60;99.90
71084;DHT22;58741;52.672;13.548;2024-03-02T03:34:48;7.70;99.90
71084;DHT22;58741;52.672;13.548;2024-03-02T03:37:15;7.70;99.90
71084;DHT22;58741;52.672;13.548;2024-03-02T03:39:42;7.80;99.90
71084;DHT22;58741;52.672;13.548;2024-03-02T03:42:09;7.80;99.90
71084;DHT22;58741;52.672;13.548;2024-03-02T03:44:35;7.80;99.90
71084;DHT22;58741;52.672;13.548;2024-03-02T03:47:02;7.90;99.90
71084;DHT22;58741;52.672;13.548;2024-03-02T03:49:29;7.90;99.90
71084;DHT22;58741;52.672;13.548;2024-03-02T03:51:56;7.90;99.90
71084;DHT22;58741;52.672;13.548;2024-03-02T03:54:23;8.00;99.90
71084;DHT22;58741;52.672;13.548;2024-03-02T03:56:49;8.00;99.90
71084;DHT22;58741;52.672;13.548;2024-03-02T03:59:16;8.00;99.90
71084;DHT22;58741;52.672;13.548;2024-03-02T04:01:43;8.00;99.90
71084;DHT22;58741;52.672;13.548;2024-03-02T04:04:10;8.00;99.90
71084;DHT22;58741;52.672;13.548;2024-03-02T04:06:36;8.10;99.90
71084;DHT22;58741;52.672;13.548;2024-03-02T04:09:03;8.10;99.90
71084;DHT22;58741;52.672;13.548;2024-03-02T04:11:30;8.10;99.90
71084;DHT22;58741;52.672;13.548;2024-03-02T04:13:57;8.10;99.90
71084;DHT22;58741;52.672;13.548;2024-03-02T04:16:24;8.20;99.90
71084;DHT22;58741;52.672;13.548;2024-03-02T04:18:51;8.20;99.90
71084;DHT22;58741;52.672;13.548;2024-03-02T04:21:18;8.20;99.90
71084;DHT22;58741;52.672;13.548;2024-03-02T04:23:45;8.20;99.90
71084;DHT22;58741;52.672;13.548;2024-03-02T04:26:12;8.20;99.90
71084;DHT22;58741;52.672;13.548;2024-03-02T04:28:39;8.20;99.90
71084;DHT22;58741;52.672;13.548;2024-03-02T04:31:05;8.30;99.90
71084;DHT22;58741;52.672;13.548;2024-03-02T04:33:32;8.30;99.90
71084;DHT22;58741;52.672;13.548;2024-03-02T04:35:59;8.30;99.90
71084;DHT22;58741;52.672;13.548;2024-03-02T04:38:26;8.30;99.90
71084;DHT22;58741;52.672;13.548;2024-03-02T04:40:52;8.30;99.90
71084;DHT22;58741;52.672;13.548;2024-03-02T04:43:19;8.30;99.90
71084;DHT22;58741;52.672;13.548;2024-03-02T04:45:46;8.40;99.90
71084;DHT22;58741;52.672;13.548;2024-03-02T04:48:13;8.40;99.90
71084;DHT22;58741;52.672;13.548;2024-03-02T04:50:41;8.40;99.90
71084;DHT22;58741;52.672;13.548;2024-03-02T04:53:07;8.40;99.90
71084;DHT22;58741;52.672;13.548;2024-03-02T04:55:34;8.40;99.90
71084;DHT22;58741;52.672;13.548;2024-03-02T04:58:01;8.40;99.90
71084;DHT22;58741;52.672;13.548;2024-03-02T05:00:28;8.40;99.90
71084;DHT22;58741;52.672;13.548;2024-03-02T05:02:55;8.50;99.90
71084;DHT22;58741;52.672;13.548;2024-03-02T05:05:22;8.50;99.90
71084;DHT22;58741;52.672;13.548;2024-03-02T05:07:49;8.50;99.90
71084;DHT22;58741;52.672;13.548;2024-03-02T05:10:16;8.50;99.90
71084;DHT22;58741;52.672;13.548;2024-03-02T05:12:42;8.50;99.90
71084;DHT22;58741;52.672;13.548;2024-03-02T05:15:10;8.50;99.90
71084;DHT22;58741;52.672;13.548;2024-03-02T05:17:38;8.50;99.90
71084;DHT22;58741;52.672;13.548;2024-03-02T05:20:06;8.50;99.90
71084;DHT22;58741;52.672;13.548;2024-03-02T05:22:34;8.50;99.90
71084;DHT22;58741;52.672;13.548;2024-03-02T05:25:03;8.50;99.90
71084;DHT22;58741;52.672;13.548;2024-03-02T05:27:30;8.60;99.90
71084;DHT22;58741;52.672;13.548;2024-03-02T05:29:59;8.50;99.90
71084;DHT22;58741;52.672;13.548;2024-03-02T05:32:26;8.60;99.90
71084;DHT22;58741;52.672;13.548;2024-03-02T05:34:53;8.50;99.90
71084;DHT22;58741;52.672;13.548;2024-03-02T05:37:20;8.60;99.90
71084;DHT22;58741;52.672;13.548;2024-03-02T05:39:47;8.60;99.90
71084;DHT22;58741;52.672;13.548;2024-03-02T05:42:13;8.60;99.90
71084;DHT22;58741;52.672;13.548;2024-03-02T05:44:41;8.60;99.90
71084;DHT22;58741;52.672;13.548;2024-03-02T05:47:08;8.60;99.90
71084;DHT22;58741;52.672;13.548;2024-03-02T05:49:36;8.60;99.90
71084;DHT22;58741;52.672;13.548;2024-03-02T05:52:03;8.60;99.90
71084;DHT22;58741;52.672;13.548;2024-03-02T05:54:30;8.70;99.90
71084;DHT22;58741;52.672;13.548;2024-03-02T05:56:56;8.70;99.90
71084;DHT22;58741;52.672;13.548;2024-03-02T05:59:23;8.70;99.90
71084;DHT22;58741;52.672;13.548;2024-03-02T06:01:50;8.70;99.90
71084;DHT22;58741;52.672;13.548;2024-03-02T06:04:18;8.70;99.90
71084;DHT22;58741;52.672;13.548;2024-03-02T06:06:45;8.70;99.90
71084;DHT22;58741;52.672;13.548;2024-03-02T06:09:11;8.70;99.90
71084;DHT22;58741;52.672;13.548;2024-03-02T06:11:40;8.70;99.90
71084;DHT22;58741;52.672;13.548;2024-03-02T06:14:08;8.80;99.90
71084;DHT22;58741;52.672;13.548;2024-03-02T06:16:35;8.80;99.90
71084;DHT22;58741;52.672;13.548;2024-03-02T06:19:02;8.80;99.90
71084;DHT22;58741;52.672;13.548;2024-03-02T06:21:29;8.80;99.90
71084;DHT22;58741;52.672;13.548;2024-03-02T06:23:56;8.80;99.90
71084;DHT22;58741;52.672;13.548;2024-03-02T06:26:23;8.80;99.90
71084;DHT22;58741;52.672;13.548;2024-03-02T06:28:52;8.80;99.90
71084;DHT22;58741;52.672;13.548;2024-03-02T06:31:19;8.80;99.90
71084;DHT22;58741;52.672;13.548;2024-03-02T06:33:45;8.80;99.90
71084;DHT22;58741;52.672;13.548;2024-03-02T06:36:13;8.80;99.90
71084;DHT22;58741;52.672;13.548;2024-03-02T06:38:42;8.80;99.90
71084;DHT22;58741;52.672;13.548;2024-03-02T06:41:09;8.80;99.90
71084;DHT22;58741;52.672;13.548;2024-03-02T06:43:36;8.80;99.90
71084;DHT22;58741;52.672;13.548;2024-03-02T06:46:04;8.80;99.90
71084;DHT22;58741;52.672;13.548;2024-03-02T06:48:32;8.90;99.90
71084;DHT22;58741;52.672;13.548;2024-03-02T06:50:59;8.80;99.90
71084;DHT22;58741;52.672;13.548;2024-03-02T06:53:26;8.90;99.90
71084;DHT22;58741;52.672;13.548;2024-03-02T06:55:53;8.90;99.90
71084;DHT22;58741;52.672;13.548;2024-03-02T06:58:20;8.90;99.90
71084;DHT22;58741;52.672;13.548;2024-03-02T07:00:47;8.90;99.90
71084;DHT22;58741;52.672;13.548;2024-03-02T07:03:15;8.90;99.90
71084;DHT22;58741;52.672;13.548;2024-03-02T07:05:41;8.90;99.90
71084;DHT22;58741;52.672;13.548;2024-03-02T07:08:08;8.90;99.90
71084;DHT22;58741;52.672;13.548;2024-03-02T07:10:35;8.90;99.90
71084;DHT22;58741;52.672;13.548;2024-03-02T07:13:02;9.00;99.90
71084;DHT22;58741;52.672;13.548;2024-03-02T07:15:29;9.00;99.90
71084;DHT22;58741;52.672;13.548;2024-03-02T07:18:14;9.00;99.90
71084;DHT22;58741;52.672;13.548;2024-03-02T07:20:41;9.00;99.90
71084;DHT22;58741;52.672;13.548;2024-03-02T07:23:08;9.00;99.90
71084;DHT22;58741;52.672;13.548;2024-03-02T07:25:35;9.00;99.90
71084;DHT22;58741;52.672;13.548;2024-03-02T07:28:05;9.10;99.90
71084;DHT22;58741;52.672;13.548;2024-03-02T07:30:34;9.10;99.90
71084;DHT22;58741;52.672;13.548;2024-03-02T07:33:01;9.10;99.90
71084;DHT22;58741;52.672;13.548;2024-03-02T07:35:27;9.10;99.90
71084;DHT22;58741;52.672;13.548;2024-03-02T07:37:55;9.10;99.90
71084;DHT22;58741;52.672;13.548;2024-03-02T07:40:23;9.10;99.90
71084;DHT22;58741;52.672;13.548;2024-03-02T07:42:50;9.10;99.90
71084;DHT22;58741;52.672;13.548;2024-03-02T07:45:17;9.20;99.90
71084;DHT22;58741;52.672;13.548;2024-03-02T07:47:44;9.20;99.90
71084;DHT22;58741;52.672;13.548;2024-03-02T07:50:11;9.20;99.90
71084;DHT22;58741;52.672;13.548;2024-03-02T07:52:38;9.20;99.90
71084;DHT22;58741;52.672;13.548;2024-03-02T07:55:04;9.20;99.90
71084;DHT22;58741;52.672;13.548;2024-03-02T07:57:31;9.20;99.90
71084;DHT22;58741;52.672;13.548;2024-03-02T07:59:58;9.20;99.90
71084;DHT22;58741;52.672;13.548;2024-03-02T08:02:26;9.20;99.90
71084;DHT22;58741;52.672;13.548;2024-03-02T08:04:52;9.30;99.90
71084;DHT22;58741;52.672;13.548;2024-03-02T08:07:19;9.20;99.90
71084;DHT22;58741;52.672;13.548;2024-03-02T08:09:46;9.20;99.90
71084;DHT22;58741;52.672;13.548;2024-03-02T08:12:13;9.30;99.90
71084;DHT22;58741;52.672;13.548;2024-03-02T08:14:40;9.30;99.90
71084;DHT22;58741;52.672;13.548;2024-03-02T08:17:07;9.30;99.90
71084;DHT22;58741;52.672;13.548;2024-03-02T08:19:36;9.30;99.90
71084;DHT22;58741;52.672;13.548;2024-03-02T08:22:03;9.30;99.90
71084;DHT22;58741;52.672;13.548;2024-03-02T08:24:31;9.30;99.90
71084;DHT22;58741;52.672;13.548;2024-03-02T08:26:59;9.30;99.90
71084;DHT22;58741;52.672;13.548;2024-03-02T08:29:26;9.40;99.90
71084;DHT22;58741;52.672;13.548;2024-03-02T08:31:54;9.30;99.90
71084;DHT22;58741;52.672;13.548;2024-03-02T08:34:20;9.30;99.90
71084;DHT22;58741;52.672;13.548;2024-03-02T08:36:47;9.30;99.90
71084;DHT22;58741;52.672;13.548;2024-03-02T08:39:15;9.40;99.90
71084;DHT22;58741;52.672;13.548;2024-03-02T08:41:44;9.40;99.90
71084;DHT22;58741;52.672;13.548;2024-03-02T08:44:11;9.40;99.90
71084;DHT22;58741;52.672;13.548;2024-03-02T08:46:39;9.40;99.90
71084;DHT22;58741;52.672;13.548;2024-03-02T08:49:06;9.40;99.90
71084;DHT22;58741;52.672;13.548;2024-03-02T08:51:33;9.50;99.90
71084;DHT22;58741;52.672;13.548;2024-03-02T08:54:00;9.50;99.90
71084;DHT22;58741;52.672;13.548;2024-03-02T08:56:27;9.50;99.90
71084;DHT22;58741;52.672;13.548;2024-03-02T08:58:54;9.50;99.90
71084;DHT22;58741;52.672;13.548;2024-03-02T09:01:21;9.50;99.90
71084;DHT22;58741;52.672;13.548;2024-03-02T09:03:48;9.50;99.90
71084;DHT22;58741;52.672;13.548;2024-03-02T09:06:16;9.60;99.90
71084;DHT22;58741;52.672;13.548;2024-03-02T09:08:47;9.60;99.90
71084;DHT22;58741;52.672;13.548;2024-03-02T09:11:16;9.60;99.90
71084;DHT22;58741;52.672;13.548;2024-03-02T09:13:42;9.60;99.90
71084;DHT22;58741;52.672;13.548;2024-03-02T09:16:09;9.60;99.90
71084;DHT22;58741;52.672;13.548;2024-03-02T09:18:38;9.60;99.90
71084;DHT22;58741;52.672;13.548;2024-03-02T09:21:05;9.60;99.90
71084;DHT22;58741;52.672;13.548;2024-03-02T09:23:31;9.60;99.90
71084;DHT22;58741;52.672;13.548;2024-03-02T09:25:58;9.60;99.90
71084;DHT22;58741;52.672;13.548;2024-03-02T09:28:26;9.60;99.90
71084;DHT22;58741;52.672;13.548;2024-03-02T09:30:52;9.60;99.90
71084;DHT22;58741;52.672;13.548;2024-03-02T09:33:22;9.70;99.90
71084;DHT22;58741;52.672;13.548;2024-03-02T09:35:49;9.70;99.90
71084;DHT22;58741;52.672;13.548;2024-03-02T09:38:18;9.70;99.90
71084;DHT22;58741;52.672;13.548;2024-03-02T09:40:45;9.80;99.90
71084;DHT22;58741;52.672;13.548;2024-03-02T09:43:12;9.80;99.90
71084;DHT22;58741;52.672;13.548;2024-03-02T09:45:40;9.80;99.90
71084;DHT22;58741;52.672;13.548;2024-03-02T09:48:07;9.90;99.90
71084;DHT22;58741;52.672;13.548;2024-03-02T09:50:34;10.00;99.90
71084;DHT22;58741;52.672;13.548;2024-03-02T09:53:01;10.00;99.90
71084;DHT22;58741;52.672;13.548;2024-03-02T09:55:28;10.00;99.90
71084;DHT22;58741;52.672;13.548;2024-03-02T09:57:55;10.10;99.90
71084;DHT22;58741;52.672;13.548;2024-03-02T10:00:23;10.10;99.90
71084;DHT22;58741;52.672;13.548;2024-03-02T10:02:51;10.20;99.90
71084;DHT22;58741;52.672;13.548;2024-03-02T10:05:25;10.30;99.90
71084;DHT22;58741;52.672;13.548;2024-03-02T10:08:03;10.30;99.90
71084;DHT22;58741;52.672;13.548;2024-03-02T10:10:38;10.40;99.90
71084;DHT22;58741;52.672;13.548;2024-03-02T10:13:11;10.40;99.90
71084;DHT22;58741;52.672;13.548;2024-03-02T10:15:39;10.50;99.90
71084;DHT22;58741;52.672;13.548;2024-03-02T10:18:11;10.60;99.90
71084;DHT22;58741;52.672;13.548;2024-03-02T10:20:42;10.70;99.90
71084;DHT22;58741;52.672;13.548;2024-03-02T10:23:18;10.80;99.90
71084;DHT22;58741;52.672;13.548;2024-03-02T10:25:44;10.90;99.90
71084;DHT22;58741;52.672;13.548;2024-03-02T10:28:23;11.00;99.90
71084;DHT22;58741;52.672;13.548;2024-03-02T10:30:51;11.00;99.90
71084;DHT22;58741;52.672;13.548;2024-03-02T10:33:19;11.10;99.90
71084;DHT22;58741;52.672;13.548;2024-03-02T10:35:48;11.20;99.90
71084;DHT22;58741;52.672;13.548;2024-03-02T10:38:16;11.30;99.90
71084;DHT22;58741;52.672;13.548;2024-03-02T10:40:47;11.30;99.90
71084;DHT22;58741;52.672;13.548;2024-03-02T10:43:14;11.40;99.90
71084;DHT22;58741;52.672;13.548;2024-03-02T10:45:42;11.40;99.90
71084;DHT22;58741;52.672;13.548;2024-03-02T10:48:10;11.40;99.90
71084;DHT22;58741;52.672;13.548;2024-03-02T10:50:37;11.50;99.90
71084;DHT22;58741;52.672;13.548;2024-03-02T10:53:03;11.60;99.90
71084;DHT22;58741;52.672;13.548;2024-03-02T10:55:32;11.60;99.90
71084;DHT22;58741;52.672;13.548;2024-03-02T10:58:00;11.60;99.90
71084;DHT22;58741;52.672;13.548;2024-03-02T11:00:33;11.70;99.90
71084;DHT22;58741;52.672;13.548;2024-03-02T11:03:05;11.70;99.90
71084;DHT22;58741;52.672;13.548;2024-03-02T11:05:39;11.70;99.90
71084;DHT22;58741;52.672;13.548;2024-03-02T11:08:08;11.80;99.90
71084;DHT22;58741;52.672;13.548;2024-03-02T11:10:41;11.80;99.90
71084;DHT22;58741;52.672;13.548;2024-03-02T11:13:14;11.90;99.90
71084;DHT22;58741;52.672;13.548;2024-03-02T11:15:43;12.00;99.90
71084;DHT22;58741;52.672;13.548;2024-03-02T11:18:12;12.00;99.90
71084;DHT22;58741;52.672;13.548;2024-03-02T11:20:40;12.10;99.90
71084;DHT22;58741;52.672;13.548;2024-03-02T11:23:10;12.20;99.90
71084;DHT22;58741;52.672;13.548;2024-03-02T11:25:37;12.30;99.90
71084;DHT22;58741;52.672;13.548;2024-03-02T11:28:07;12.40;99.90
71084;DHT22;58741;52.672;13.548;2024-03-02T11:33:07;12.50;99.90
71084;DHT22;58741;52.672;13.548;2024-03-02T11:35:36;12.60;99.90
71084;DHT22;58741;52.672;13.548;2024-03-02T11:38:04;12.80;99.90
71084;DHT22;58741;52.672;13.548;2024-03-02T11:40:33;12.80;99.90
71084;DHT22;58741;52.672;13.548;2024-03-02T11:43:00;12.90;99.90
71084;DHT22;58741;52.672;13.548;2024-03-02T11:45:27;12.90;99.90
71084;DHT22;58741;52.672;13.548;2024-03-02T11:47:55;12.90;99.90
71084;DHT22;58741;52.672;13.548;2024-03-02T11:50:46;12.90;99.90
71084;DHT22;58741;52.672;13.548;2024-03-02T11:53:14;13.10;99.90
71084;DHT22;58741;52.672;13.548;2024-03-02T11:55:41;13.20;99.90
71084;DHT22;58741;52.672;13.548;2024-03-02T11:58:13;13.30;99.90
71084;DHT22;58741;52.672;13.548;2024-03-02T12:00:40;13.40;99.90
71084;DHT22;58741;52.672;13.548;2024-03-02T12:03:09;13.50;99.90
71084;DHT22;58741;52.672;13.548;2024-03-02T12:05:39;13.60;99.90
71084;DHT22;58741;52.672;13.548;2024-03-02T12:08:07;13.60;99.90
71084;DHT22;58741;52.672;13.548;2024-03-02T12:10:35;13.60;99.90
71084;DHT22;58741;52.672;13.548;2024-03-02T12:13:04;13.60;99.90
71084;DHT22;58741;52.672;13.548;2024-03-02T12:15:34;13.60;99.90
71084;DHT22;58741;52.672;13.548;2024-03-02T12:18:02;13.70;99.90
71084;DHT22;58741;52.672;13.548;2024-03-02T12:20:30;13.70;99.90
71084;DHT22;58741;52.672;13.548;2024-03-02T12:22:58;13.70;99.90
71084;DHT22;58741;52.672;13.548;2024-03-02T12:25:26;13.80;99.90
71084;DHT22;58741;52.672;13.548;2024-03-02T12:27:55;13.80;99.90
71084;DHT22;58741;52.672;13.548;2024-03-02T12:30:22;13.80;99.90
71084;DHT22;58741;52.672;13.548;2024-03-02T12:32:49;13.80;99.90
71084;DHT22;58741;52.672;13.548;2024-03-02T12:35:18;13.80;99.90
71084;DHT22;58741;52.672;13.548;2024-03-02T12:37:46;13.80;99.90
71084;DHT22;58741;52.672;13.548;2024-03-02T12:40:14;13.70;99.90
71084;DHT22;58741;52.672;13.548;2024-03-02T12:42:41;13.70;99.90
71084;DHT22;58741;52.672;13.548;2024-03-02T12:45:12;13.80;99.90
71084;DHT22;58741;52.672;13.548;2024-03-02T12:47:42;13.90;99.90
71084;DHT22;58741;52.672;13.548;2024-03-02T12:50:10;13.90;99.90
71084;DHT22;58741;52.672;13.548;2024-03-02T12:52:37;14.00;99.90
71084;DHT22;58741;52.672;13.548;2024-03-02T12:55:07;14.20;99.90
71084;DHT22;58741;52.672;13.548;2024-03-02T12:57:34;14.20;99.90
71084;DHT22;58741;52.672;13.548;2024-03-02T13:00:03;14.30;99.90
71084;DHT22;58741;52.672;13.548;2024-03-02T13:02:36;14.30;99.90
71084;DHT22;58741;52.672;13.548;2024-03-02T13:05:07;14.30;99.90
71084;DHT22;58741;52.672;13.548;2024-03-02T13:07:38;14.40;99.90
71084;DHT22;58741;52.672;13.548;2024-03-02T13:10:06;14.40;99.90
71084;DHT22;58741;52.672;13.548;2024-03-02T13:12:36;14.40;99.90
71084;DHT22;58741;52.672;13.548;2024-03-02T13:15:04;14.40;99.90
71084;DHT22;58741;52.672;13.548;2024-03-02T13:17:34;14.50;99.90
71084;DHT22;58741;52.672;13.548;2024-03-02T13:20:04;14.40;99.90
71084;DHT22;58741;52.672;13.548;2024-03-02T13:22:36;14.50;99.90
71084;DHT22;58741;52.672;13.548;2024-03-02T13:25:04;14.50;99.90
71084;DHT22;58741;52.672;13.548;2024-03-02T13:27:34;14.60;99.90
71084;DHT22;58741;52.672;13.548;2024-03-02T13:30:04;14.80;99.90
71084;DHT22;58741;52.672;13.548;2024-03-02T13:32:36;14.90;99.90
71084;DHT22;58741;52.672;13.548;2024-03-02T13:35:03;15.00;99.90
71084;DHT22;58741;52.672;13.548;2024-03-02T13:37:30;15.10;99.90
71084;DHT22;58741;52.672;13.548;2024-03-02T13:39:57;15.10;99.90
71084;DHT22;58741;52.672;13.548;2024-03-02T13:42:24;15.10;99.90
71084;DHT22;58741;52.672;13.548;2024-03-02T13:44:51;15.20;99.90
71084;DHT22;58741;52.672;13.548;2024-03-02T13:47:18;15.20;99.90
71084;DHT22;58741;52.672;13.548;2024-03-02T13:49:45;15.30;99.90
71084;DHT22;58741;52.672;13.548;2024-03-02T13:52:14;15.40;99.90
71084;DHT22;58741;52.672;13.548;2024-03-02T13:54:43;15.50;99.90
71084;DHT22;58741;52.672;13.548;2024-03-02T13:57:11;15.60;99.90
71084;DHT22;58741;52.672;13.548;2024-03-02T13:59:39;15.70;99.90
71084;DHT22;58741;52.672;13.548;2024-03-02T14:02:06;15.60;99.90
71084;DHT22;58741;52.672;13.548;2024-03-02T14:04:34;15.50;99.90
71084;DHT22;58741;52.672;13.548;2024-03-02T14:07:01;15.50;99.90
71084;DHT22;58741;52.672;13.548;2024-03-02T14:09:29;15.40;99.90
71084;DHT22;58741;52.672;13.548;2024-03-02T14:11:56;15.40;99.90
71084;DHT22;58741;52.672;13.548;2024-03-02T14:14:23;15.40;99.90
71084;DHT22;58741;52.672;13.548;2024-03-02T14:16:50;15.30;99.90
71084;DHT22;58741;52.672;13.548;2024-03-02T14:19:17;15.20;99.90
71084;DHT22;58741;52.672;13.548;2024-03-02T14:21:44;15.20;99.90
71084;DHT22;58741;52.672;13.548;2024-03-02T14:24:12;15.20;99.90
71084;DHT22;58741;52.672;13.548;2024-03-02T14:26:39;15.10;99.90
71084;DHT22;58741;52.672;13.548;2024-03-02T14:29:07;15.10;99.90
71084;DHT22;58741;52.672;13.548;2024-03-02T14:31:34;15.00;99.90
71084;DHT22;58741;52.672;13.548;2024-03-02T14:34:01;15.00;99.90
71084;DHT22;58741;52.672;13.548;2024-03-02T14:36:27;15.00;99.90
71084;DHT22;58741;52.672;13.548;2024-03-02T14:38:55;15.00;99.90
71084;DHT22;58741;52.672;13.548;2024-03-02T14:41:22;14.90;99.90
71084;DHT22;58741;52.672;13.548;2024-03-02T14:43:51;14.90;99.90
71084;DHT22;58741;52.672;13.548;2024-03-02T14:46:18;14.90;99.90
71084;DHT22;58741;52.672;13.548;2024-03-02T14:48:45;14.80;99.90
71084;DHT22;58741;52.672;13.548;2024-03-02T14:51:13;14.80;99.90
71084;DHT22;58741;52.672;13.548;2024-03-02T14:53:41;14.70;99.90
71084;DHT22;58741;52.672;13.548;2024-03-02T14:56:08;14.70;99.90
71084;DHT22;58741;52.672;13.548;2024-03-02T14:58:35;14.80;99.90
71084;DHT22;58741;52.672;13.548;2024-03-02T15:01:04;14.70;99.90
71084;DHT22;58741;52.672;13.548;2024-03-02T15:03:33;14.70;99.90
71084;DHT22;58741;52.672;13.548;2024-03-02T15:06:01;14.70;99.90
71084;DHT22;58741;52.672;13.548;2024-03-02T15:08:27;14.70;99.90
71084;DHT22;58741;52.672;13.548;2024-03-02T15:10:54;14.60;99.90
71084;DHT22;58741;52.672;13.548;2024-03-02T15:13:26;14.50;99.90
71084;DHT22;58741;52.672;13.548;2024-03-02T15:15:53;14.40;99.90
71084;DHT22;58741;52.672;13.548;2024-03-02T15:18:20;14.20;99.90
71084;DHT22;58741;52.672;13.548;2024-03-02T15:20:47;14.10;99.90
71084;DHT22;58741;52.672;13.548;2024-03-02T15:23:13;14.00;99.90
71084;DHT22;58741;52.672;13.548;2024-03-02T15:25:41;13.90;99.90
71084;DHT22;58741;52.672;13.548;2024-03-02T15:28:07;13.80;99.90
71084;DHT22;58741;52.672;13.548;2024-03-02T15:30:35;13.70;99.90
71084;DHT22;58741;52.672;13.548;2024-03-02T15:33:02;13.60;99.90
71084;DHT22;58741;52.672;13.548;2024-03-02T15:35:30;13.50;99.90